createdAt,value
2018-09-13T00:00:56.688Z,1009.11
2018-09-13T00:01:56.623Z,1009.13
2018-09-13T00:02:56.609Z,1009.16
2018-09-13T00:03:56.605Z,1009.10
2018-09-13T00:04:56.573Z,1009.12
2018-09-13T00:05:56.644Z,1009.09
2018-09-13T00:06:56.556Z,1009.08
2018-09-13T00:07:56.550Z,1009.06
2018-09-13T00:08:56.556Z,1009.07
2018-09-13T00:09:56.520Z,1009.09
2018-09-13T00:10:56.507Z,1009.10
2018-09-13T00:11:56.500Z,1009.08
2018-09-13T00:12:56.484Z,1009.04
2018-09-13T00:13:56.465Z,1009.06
2018-09-13T00:14:56.453Z,1009.05
2018-09-13T00:15:56.454Z,1009.07
2018-09-13T00:16:56.512Z,1009.04
2018-09-13T00:17:56.421Z,1009.02
2018-09-13T00:18:56.411Z,1009.06
2018-09-13T00:19:56.433Z,1009.01
2018-09-13T00:20:56.397Z,1008.99
2018-09-13T00:21:56.372Z,1008.96
2018-09-13T00:22:56.361Z,1008.95
2018-09-13T00:23:56.351Z,1008.92
2018-09-13T00:24:56.368Z,1008.90
2018-09-13T00:25:56.316Z,1008.89
2018-09-13T00:26:56.377Z,1008.92
2018-09-13T00:27:56.301Z,1008.90
2018-09-13T00:28:56.292Z,1008.90
2018-09-13T00:29:56.273Z,1008.89
2018-09-13T00:30:56.254Z,1008.90
2018-09-13T00:31:56.254Z,1008.92
2018-09-13T00:32:56.285Z,1008.91
2018-09-13T00:33:56.234Z,1008.92
2018-09-13T00:34:56.215Z,1008.96
2018-09-13T00:35:56.196Z,1008.93
2018-09-13T00:36:56.199Z,1008.94
2018-09-13T00:37:56.180Z,1008.95
2018-09-13T00:38:56.173Z,1008.96
2018-09-13T00:39:56.161Z,1008.95
2018-09-13T00:40:56.136Z,1008.96
2018-09-13T00:41:56.136Z,1008.94
2018-09-13T00:42:56.124Z,1008.94
2018-09-13T00:43:56.141Z,1008.93
2018-09-13T00:44:56.091Z,1008.95
2018-09-13T00:45:56.082Z,1008.95
2018-09-13T00:46:56.071Z,1008.97
2018-09-13T00:47:56.050Z,1008.94
2018-09-13T00:48:56.076Z,1008.93
2018-09-13T00:49:56.061Z,1008.92
2018-09-13T00:50:56.018Z,1008.94
2018-09-13T00:51:56.003Z,1008.93
2018-09-13T00:52:56.005Z,1008.95
2018-09-13T00:53:55.989Z,1008.95
2018-09-13T00:54:56.010Z,1008.95
2018-09-13T00:55:55.964Z,1008.89
2018-09-13T00:56:55.960Z,1008.93
2018-09-13T00:57:55.976Z,1008.87
2018-09-13T00:58:55.976Z,1008.88
2018-09-13T00:59:55.917Z,1008.87
2018-09-13T01:00:55.904Z,1008.89
2018-09-13T01:01:55.892Z,1008.86
2018-09-13T01:02:55.929Z,1008.85
2018-09-13T01:03:55.871Z,1008.85
2018-09-13T01:04:55.859Z,1008.83
2018-09-13T01:05:55.841Z,1008.86
2018-09-13T01:06:55.832Z,1008.87
2018-09-13T01:07:55.814Z,1008.83
2018-09-13T01:08:55.839Z,1008.79
2018-09-13T01:09:55.790Z,1008.84
2018-09-13T01:10:55.785Z,1008.75
2018-09-13T01:11:55.776Z,1008.73
2018-09-13T01:12:55.748Z,1008.76
2018-09-13T01:13:55.776Z,1008.72
2018-09-13T01:14:55.727Z,1008.74
2018-09-13T01:15:55.710Z,1008.76
2018-09-13T01:16:55.697Z,1008.75
2018-09-13T01:17:55.698Z,1008.72
2018-09-13T01:18:55.690Z,1008.72
2018-09-13T01:19:55.673Z,1008.72
2018-09-13T01:20:55.659Z,1008.69
2018-09-13T01:21:55.649Z,1008.68
2018-09-13T01:22:55.670Z,1008.67
2018-09-13T01:23:55.660Z,1008.68
2018-09-13T01:24:55.625Z,1008.66
2018-09-13T01:25:55.601Z,1008.67
2018-09-13T01:26:55.593Z,1008.68
2018-09-13T01:27:55.580Z,1008.64
2018-09-13T01:28:55.588Z,1008.66
2018-09-13T01:29:55.538Z,1008.61
2018-09-13T01:30:55.554Z,1008.63
2018-09-13T01:31:55.516Z,1008.62
2018-09-13T01:32:55.506Z,1008.62
2018-09-13T01:33:55.494Z,1008.65
2018-09-13T01:34:55.494Z,1008.65
2018-09-13T01:35:55.531Z,1008.67
2018-09-13T01:36:55.462Z,1008.62
2018-09-13T01:37:55.440Z,1008.67
2018-09-13T01:38:55.442Z,1008.68
2018-09-13T01:39:55.425Z,1008.61
2018-09-13T01:40:55.408Z,1008.65
2018-09-13T01:41:55.425Z,1008.63
2018-09-13T01:42:55.386Z,1008.66
2018-09-13T01:43:55.378Z,1008.62
2018-09-13T01:44:55.365Z,1008.62
2018-09-13T01:45:55.347Z,1008.60
2018-09-13T01:46:55.373Z,1008.56
2018-09-13T01:47:55.331Z,1008.58
2018-09-13T01:48:55.319Z,1008.57
2018-09-13T01:49:55.305Z,1008.56
2018-09-13T01:50:55.289Z,1008.54
2018-09-13T01:51:55.307Z,1008.55
2018-09-13T01:52:55.265Z,1008.48
2018-09-13T01:53:55.324Z,1008.54
2018-09-13T01:54:55.244Z,1008.51
2018-09-13T01:55:55.234Z,1008.48
2018-09-13T01:56:55.219Z,1008.47
2018-09-13T01:57:55.207Z,1008.45
2018-09-13T01:58:55.185Z,1008.47
2018-09-13T01:59:55.209Z,1008.45
2018-09-13T02:00:55.200Z,1008.46
2018-09-13T02:01:55.166Z,1008.45
2018-09-13T02:02:55.147Z,1008.41
2018-09-13T02:03:55.123Z,1008.43
2018-09-13T02:04:55.111Z,1008.40
2018-09-13T02:05:55.228Z,1008.43
2018-09-13T02:06:55.107Z,1008.40
2018-09-13T02:07:55.077Z,1008.40
2018-09-13T02:08:55.066Z,1008.40
2018-09-13T02:09:55.065Z,1008.38
2018-09-13T02:10:55.044Z,1008.39
2018-09-13T02:11:55.069Z,1008.41
2018-09-13T02:12:55.012Z,1008.39
2018-09-13T02:13:55.015Z,1008.41
2018-09-13T02:14:54.997Z,1008.41
2018-09-13T02:15:55.010Z,1008.43
2018-09-13T02:16:54.981Z,1008.38
2018-09-13T02:17:54.951Z,1008.38
2018-09-13T02:18:54.949Z,1008.40
2018-09-13T02:19:54.957Z,1008.41
2018-09-13T02:20:54.924Z,1008.38
2018-09-13T02:21:54.968Z,1008.43
2018-09-13T02:22:54.897Z,1008.41
2018-09-13T02:23:54.881Z,1008.38
2018-09-13T02:24:54.877Z,1008.37
2018-09-13T02:25:54.869Z,1008.34
2018-09-13T02:26:54.847Z,1008.34
2018-09-13T02:27:54.844Z,1008.31
2018-09-13T02:28:54.831Z,1008.34
2018-09-13T02:29:54.814Z,1008.36
2018-09-13T02:30:54.800Z,1008.36
2018-09-13T02:31:54.789Z,1008.31
2018-09-13T02:32:54.810Z,1008.35
2018-09-13T02:33:54.751Z,1008.29
2018-09-13T02:34:54.747Z,1008.31
2018-09-13T02:35:54.729Z,1008.27
2018-09-13T02:36:54.717Z,1008.28
2018-09-13T02:37:54.766Z,1008.27
2018-09-13T02:38:54.695Z,1008.29
2018-09-13T02:39:54.693Z,1008.33
2018-09-13T02:40:54.682Z,1008.32
2018-09-13T02:41:54.668Z,1008.31
2018-09-13T02:42:54.654Z,1008.28
2018-09-13T02:43:54.658Z,1008.31
2018-09-13T02:44:54.631Z,1008.22
2018-09-13T02:45:54.620Z,1008.22
2018-09-13T02:46:54.594Z,1008.19
2018-09-13T02:47:54.593Z,1008.17
2018-09-13T02:48:54.622Z,1008.17
2018-09-13T02:49:54.566Z,1008.21
2018-09-13T02:50:54.550Z,1008.18
2018-09-13T02:51:54.533Z,1008.17
2018-09-13T02:52:54.531Z,1008.13
2018-09-13T02:53:54.515Z,1008.11
2018-09-13T02:54:54.504Z,1008.08
2018-09-13T02:55:54.525Z,1008.10
2018-09-13T02:56:54.483Z,1008.10
2018-09-13T02:57:54.472Z,1008.07
2018-09-13T02:58:54.463Z,1008.09
2018-09-13T02:59:54.448Z,1008.08
2018-09-13T03:00:54.468Z,1008.08
2018-09-13T03:01:54.422Z,1008.09
2018-09-13T03:02:54.414Z,1008.08
2018-09-13T03:03:54.400Z,1008.08
2018-09-13T03:04:54.379Z,1008.10
2018-09-13T03:05:54.370Z,1008.06
2018-09-13T03:06:54.386Z,1008.06
2018-09-13T03:07:54.347Z,1008.04
2018-09-13T03:08:54.338Z,1008.04
2018-09-13T03:09:54.321Z,1008.04
2018-09-13T03:10:54.307Z,1008.04
2018-09-13T03:11:54.307Z,1008.09
2018-09-13T03:12:54.288Z,1008.11
2018-09-13T03:13:54.274Z,1008.15
2018-09-13T03:14:54.271Z,1008.16
2018-09-13T03:15:54.251Z,1008.15
2018-09-13T03:16:54.267Z,1008.17
2018-09-13T03:17:54.223Z,1008.16
2018-09-13T03:18:54.239Z,1008.17
2018-09-13T03:19:54.194Z,1008.22
2018-09-13T03:20:54.184Z,1008.20
2018-09-13T03:21:54.175Z,1008.18
2018-09-13T03:22:54.193Z,1008.18
2018-09-13T03:23:54.148Z,1008.18
2018-09-13T03:24:54.132Z,1008.21
2018-09-13T03:25:54.121Z,1008.18
2018-09-13T03:26:54.117Z,1008.19
2018-09-13T03:27:54.159Z,1008.16
2018-09-13T03:28:54.083Z,1008.13
2018-09-13T03:29:54.077Z,1008.14
2018-09-13T03:30:54.066Z,1008.10
2018-09-13T03:31:54.060Z,1008.08
2018-09-13T03:32:54.034Z,1008.08
2018-09-13T03:33:54.064Z,1008.09
2018-09-13T03:34:54.019Z,1008.04
2018-09-13T03:35:53.999Z,1008.08
2018-09-13T03:36:53.992Z,1008.08
2018-09-13T03:37:53.981Z,1008.07
2018-09-13T03:38:53.985Z,1008.06
2018-09-13T03:39:53.945Z,1008.07
2018-09-13T03:40:53.939Z,1008.09
2018-09-13T03:41:53.950Z,1008.07
2018-09-13T03:42:53.922Z,1008.11
2018-09-13T03:43:53.931Z,1008.10
2018-09-13T03:44:53.881Z,1008.07
2018-09-13T03:45:53.904Z,1008.03
2018-09-13T03:46:53.870Z,1008.00
2018-09-13T03:47:53.858Z,1008.04
2018-09-13T03:48:53.862Z,1008.06
2018-09-13T03:49:53.829Z,1008.08
2018-09-13T03:50:53.852Z,1008.08
2018-09-13T03:51:53.801Z,1008.10
2018-09-13T03:52:53.793Z,1008.13
2018-09-13T03:53:53.825Z,1008.11
2018-09-13T03:54:53.767Z,1008.14
2018-09-13T03:55:53.753Z,1008.13
2018-09-13T03:56:53.748Z,1008.12
2018-09-13T03:57:53.733Z,1008.12
2018-09-13T03:58:53.764Z,1008.12
2018-09-13T03:59:53.713Z,1008.13
2018-09-13T04:00:53.688Z,1008.17
2018-09-13T04:01:53.696Z,1008.19
2018-09-13T04:02:53.695Z,1008.20
2018-09-13T04:03:53.665Z,1008.20
2018-09-13T04:04:53.766Z,1008.23
2018-09-13T04:05:53.635Z,1008.23
2018-09-13T04:06:53.618Z,1008.26
2018-09-13T04:07:53.616Z,1008.20
2018-09-13T04:08:53.600Z,1008.22
2018-09-13T04:09:53.580Z,1008.23
2018-09-13T04:10:53.755Z,1008.24
2018-09-13T04:11:53.556Z,1008.22
2018-09-13T04:12:53.556Z,1008.24
2018-09-13T04:13:53.537Z,1008.23
2018-09-13T04:14:53.521Z,1008.25
2018-09-13T04:15:53.507Z,1008.27
2018-09-13T04:16:53.500Z,1008.27
2018-09-13T04:17:53.489Z,1008.31
2018-09-13T04:18:53.508Z,1008.32
2018-09-13T04:19:53.460Z,1008.28
2018-09-13T04:20:53.445Z,1008.30
2018-09-13T04:21:53.439Z,1008.34
2018-09-13T04:22:53.424Z,1008.33
2018-09-13T04:23:53.407Z,1008.32
2018-09-13T04:24:53.401Z,1008.32
2018-09-13T04:25:53.426Z,1008.28
2018-09-13T04:26:53.367Z,1008.34
2018-09-13T04:27:53.367Z,1008.29
2018-09-13T04:28:53.363Z,1008.27
2018-09-13T04:29:53.329Z,1008.29
2018-09-13T04:30:53.328Z,1008.26
2018-09-13T04:31:53.309Z,1008.28
2018-09-13T04:32:53.379Z,1008.24
2018-09-13T04:33:53.288Z,1008.22
2018-09-13T04:34:53.280Z,1008.18
2018-09-13T04:35:53.393Z,1008.14
2018-09-13T04:36:53.257Z,1008.14
2018-09-13T04:37:53.271Z,1008.14
2018-09-13T04:38:53.227Z,1008.11
2018-09-13T04:39:53.214Z,1008.12
2018-09-13T04:40:53.208Z,1008.13
2018-09-13T04:41:53.189Z,1008.09
2018-09-13T04:42:53.183Z,1008.07
2018-09-13T04:43:53.171Z,1008.09
2018-09-13T04:44:53.154Z,1008.05
2018-09-13T04:45:53.135Z,1008.13
2018-09-13T04:46:53.133Z,1008.10
2018-09-13T04:47:53.187Z,1008.12
2018-09-13T04:48:53.117Z,1008.10
2018-09-13T04:49:53.096Z,1008.08
2018-09-13T04:50:53.084Z,1008.10
2018-09-13T04:51:53.080Z,1008.10
2018-09-13T04:52:53.049Z,1008.06
2018-09-13T04:53:53.162Z,1008.11
2018-09-13T04:54:53.039Z,1008.10
2018-09-13T04:55:53.012Z,1008.11
2018-09-13T04:56:52.998Z,1008.08
2018-09-13T04:57:52.997Z,1008.09
2018-09-13T04:58:52.996Z,1008.10
2018-09-13T04:59:52.958Z,1008.09
2018-09-13T05:00:52.959Z,1008.06
2018-09-13T05:01:52.953Z,1008.08
2018-09-13T05:02:52.927Z,1008.07
2018-09-13T05:03:52.985Z,1008.07
2018-09-13T05:04:52.904Z,1008.09
2018-09-13T05:05:52.894Z,1008.09
2018-09-13T05:06:52.884Z,1008.08
2018-09-13T05:07:52.869Z,1008.05
2018-09-13T05:08:52.859Z,1008.05
2018-09-13T05:09:52.883Z,1008.04
2018-09-13T05:10:52.836Z,1008.06
2018-09-13T05:11:52.822Z,1008.05
2018-09-13T05:12:52.811Z,1008.05
2018-09-13T05:13:52.799Z,1008.06
2018-09-13T05:14:52.808Z,1008.05
2018-09-13T05:15:52.769Z,1008.07
2018-09-13T05:16:52.758Z,1008.07
2018-09-13T05:17:52.754Z,1008.07
2018-09-13T05:18:52.775Z,1008.09
2018-09-13T05:19:52.721Z,1008.11
2018-09-13T05:20:52.714Z,1008.10
2018-09-13T05:21:52.696Z,1008.13
2018-09-13T05:22:52.687Z,1008.09
2018-09-13T05:23:52.707Z,1008.10
2018-09-13T05:24:52.690Z,1008.15
2018-09-13T05:25:52.635Z,1008.12
2018-09-13T05:26:52.635Z,1008.10
2018-09-13T05:27:52.624Z,1008.10
2018-09-13T05:28:52.608Z,1008.07
2018-09-13T05:29:52.622Z,1008.08
2018-09-13T05:30:52.588Z,1008.10
2018-09-13T05:31:52.568Z,1008.07
2018-09-13T05:32:52.565Z,1008.10
2018-09-13T05:33:52.542Z,1008.09
2018-09-13T05:34:52.588Z,1008.09
2018-09-13T05:35:52.522Z,1008.13
2018-09-13T05:36:52.508Z,1008.13
2018-09-13T05:37:52.491Z,1008.12
2018-09-13T05:38:52.505Z,1008.11
2018-09-13T05:39:52.569Z,1008.09
2018-09-13T05:40:52.468Z,1008.08
2018-09-13T05:41:52.445Z,1008.08
2018-09-13T05:42:52.437Z,1008.09
2018-09-13T05:43:52.431Z,1008.06
2018-09-13T05:44:52.407Z,1008.07
2018-09-13T05:45:52.463Z,1008.06
2018-09-13T05:46:52.380Z,1008.05
2018-09-13T05:47:52.362Z,1008.05
2018-09-13T05:48:52.360Z,1008.06
2018-09-13T05:49:52.336Z,1008.06
2018-09-13T05:50:52.337Z,1008.03
2018-09-13T05:51:52.350Z,1008.02
2018-09-13T05:52:52.315Z,1008.03
2018-09-13T05:53:52.297Z,1008.05
2018-09-13T05:54:52.293Z,1008.06
2018-09-13T05:55:52.305Z,1008.03
2018-09-13T05:56:52.266Z,1008.05
2018-09-13T05:57:52.253Z,1008.07
2018-09-13T05:58:52.229Z,1008.04
2018-09-13T05:59:52.223Z,1008.07
2018-09-13T06:00:52.223Z,1008.07
2018-09-13T06:01:52.188Z,1008.09
2018-09-13T06:02:52.186Z,1008.07
2018-09-13T06:03:52.172Z,1008.11
2018-09-13T06:04:52.165Z,1008.13
2018-09-13T06:05:52.195Z,1008.14
2018-09-13T06:06:52.128Z,1008.10
2018-09-13T06:07:52.142Z,1008.12
2018-09-13T06:08:52.115Z,1008.14
2018-09-13T06:09:52.103Z,1008.11
2018-09-13T06:10:52.084Z,1008.15
2018-09-13T06:11:52.099Z,1008.17
2018-09-13T06:12:52.063Z,1008.15
2018-09-13T06:13:52.083Z,1008.13
2018-09-13T06:14:52.048Z,1008.12
2018-09-13T06:15:52.015Z,1008.17
2018-09-13T06:16:52.016Z,1008.15
2018-09-13T06:17:52.009Z,1008.14
2018-09-13T06:18:52.261Z,1008.15
2018-09-13T06:19:52.068Z,1008.19
2018-09-13T06:20:51.969Z,1008.17
2018-09-13T06:21:51.959Z,1008.18
2018-09-13T06:22:51.929Z,1008.22
2018-09-13T06:23:51.928Z,1008.19
2018-09-13T06:24:51.974Z,1008.19
2018-09-13T06:25:51.897Z,1008.21
2018-09-13T06:26:51.891Z,1008.18
2018-09-13T06:27:51.870Z,1008.18
2018-09-13T06:28:51.859Z,1008.19
2018-09-13T06:29:51.919Z,1008.21
2018-09-13T06:30:51.835Z,1008.19
2018-09-13T06:31:51.821Z,1008.22
2018-09-13T06:32:51.811Z,1008.18
2018-09-13T06:33:51.801Z,1008.20
2018-09-13T06:34:51.788Z,1008.21
2018-09-13T06:35:51.782Z,1008.23
2018-09-13T06:36:51.767Z,1008.21
2018-09-13T06:37:51.757Z,1008.20
2018-09-13T06:38:51.730Z,1008.20
2018-09-13T06:39:51.728Z,1008.17
2018-09-13T06:40:51.770Z,1008.26
2018-09-13T06:41:51.701Z,1008.22
2018-09-13T06:42:51.720Z,1008.24
2018-09-13T06:43:51.677Z,1008.28
2018-09-13T06:44:51.674Z,1008.24
2018-09-13T06:45:51.650Z,1008.25
2018-09-13T06:46:51.839Z,1008.23
2018-09-13T06:47:51.633Z,1008.25
2018-09-13T06:48:51.612Z,1008.22
2018-09-13T06:49:51.602Z,1008.23
2018-09-13T06:50:51.599Z,1008.27
2018-09-13T06:51:51.576Z,1008.23
2018-09-13T06:52:51.570Z,1008.25
2018-09-13T06:53:51.822Z,1008.26
2018-09-13T06:54:51.541Z,1008.21
2018-09-13T06:55:51.526Z,1008.23
2018-09-13T06:56:51.528Z,1008.22
2018-09-13T06:57:51.494Z,1008.23
2018-09-13T06:58:51.489Z,1008.25
2018-09-13T06:59:51.487Z,1008.27
2018-09-13T07:00:51.472Z,1008.25
2018-09-13T07:01:51.495Z,1008.22
2018-09-13T07:02:51.459Z,1008.26
2018-09-13T07:03:51.437Z,1008.29
2018-09-13T07:04:51.420Z,1008.30
2018-09-13T07:05:51.461Z,1008.27
2018-09-13T07:06:51.393Z,1008.31
2018-09-13T07:07:51.372Z,1008.26
2018-09-13T07:08:51.365Z,1008.30
2018-09-13T07:09:51.359Z,1008.28
2018-09-13T07:10:51.352Z,1008.26
2018-09-13T07:11:51.363Z,1008.28
2018-09-13T07:12:51.318Z,1008.24
2018-09-13T07:13:51.311Z,1008.28
2018-09-13T07:14:51.293Z,1008.23
2018-09-13T07:15:51.328Z,1008.28
2018-09-13T07:16:51.275Z,1008.26
2018-09-13T07:17:51.262Z,1008.27
2018-09-13T07:18:51.238Z,1008.23
2018-09-13T07:19:51.237Z,1008.27
2018-09-13T07:20:51.221Z,1008.27
2018-09-13T07:21:51.255Z,1008.22
2018-09-13T07:22:51.204Z,1008.26
2018-09-13T07:23:51.192Z,1008.25
2018-09-13T07:24:51.179Z,1008.30
2018-09-13T07:25:51.169Z,1008.29
2018-09-13T07:26:51.178Z,1008.28
2018-09-13T07:27:51.143Z,1008.29
2018-09-13T07:28:51.133Z,1008.25
2018-09-13T07:29:51.121Z,1008.25
2018-09-13T07:30:51.176Z,1008.28
2018-09-13T07:31:51.140Z,1008.27
2018-09-13T07:32:51.084Z,1008.21
2018-09-13T07:33:51.076Z,1008.23
2018-09-13T07:34:51.048Z,1008.19
2018-09-13T07:35:51.034Z,1008.25
2018-09-13T07:36:51.082Z,1008.21
2018-09-13T07:37:51.029Z,1008.25
2018-09-13T07:38:51.011Z,1008.24
2018-09-13T07:39:50.989Z,1008.24
2018-09-13T07:40:50.989Z,1008.24
2018-09-13T07:41:51.003Z,1008.25
2018-09-13T07:42:50.993Z,1008.25
2018-09-13T07:43:51.021Z,1008.25
2018-09-13T07:44:50.934Z,1008.23
2018-09-13T07:45:50.928Z,1008.27
2018-09-13T07:46:50.909Z,1008.30
2018-09-13T07:47:50.899Z,1008.32
2018-09-13T07:48:50.888Z,1008.31
2018-09-13T07:49:51.052Z,1008.32
2018-09-13T07:50:50.898Z,1008.32
2018-09-13T07:51:50.881Z,1008.30
2018-09-13T07:52:50.837Z,1008.34
2018-09-13T07:53:50.835Z,1008.33
2018-09-13T07:54:50.827Z,1008.35
2018-09-13T07:55:50.870Z,1008.36
2018-09-13T07:56:50.795Z,1008.35
2018-09-13T07:57:50.785Z,1008.34
2018-09-13T07:58:50.768Z,1008.37
2018-09-13T07:59:50.794Z,1008.36
2018-09-13T08:00:50.738Z,1008.32
2018-09-13T08:01:50.740Z,1008.34
2018-09-13T08:02:50.719Z,1008.36
2018-09-13T08:03:50.701Z,1008.34
2018-09-13T08:04:50.701Z,1008.35
2018-09-13T08:05:50.696Z,1008.37
2018-09-13T08:06:50.672Z,1008.38
2018-09-13T08:07:50.729Z,1008.36
2018-09-13T08:08:50.646Z,1008.40
2018-09-13T08:09:50.647Z,1008.40
2018-09-13T08:10:50.625Z,1008.42
2018-09-13T08:11:50.664Z,1008.39
2018-09-13T08:12:50.611Z,1008.41
2018-09-13T08:13:50.641Z,1008.43
2018-09-13T08:14:50.588Z,1008.46
2018-09-13T08:15:50.631Z,1008.48
2018-09-13T08:16:50.548Z,1008.46
2018-09-13T08:17:50.542Z,1008.46
2018-09-13T08:18:50.532Z,1008.45
2018-09-13T08:19:50.525Z,1008.49
2018-09-13T08:20:50.517Z,1008.45
2018-09-13T08:21:50.601Z,1008.47
2018-09-13T08:22:50.485Z,1008.51
2018-09-13T08:23:50.469Z,1008.50
2018-09-13T08:24:50.495Z,1008.53
2018-09-13T08:25:50.452Z,1008.50
2018-09-13T08:26:50.462Z,1008.52
2018-09-13T08:27:50.425Z,1008.58
2018-09-13T08:28:50.410Z,1008.59
2018-09-13T08:29:50.411Z,1008.59
2018-09-13T08:30:50.656Z,1008.59
2018-09-13T08:31:50.381Z,1008.60
2018-09-13T08:32:50.367Z,1008.64
2018-09-13T08:33:50.359Z,1008.64
2018-09-13T08:34:50.423Z,1008.63
2018-09-13T08:35:50.331Z,1008.63
2018-09-13T08:36:50.336Z,1008.68
2018-09-13T08:37:50.308Z,1008.64
2018-09-13T08:38:50.299Z,1008.67
2018-09-13T08:39:50.365Z,1008.62
2018-09-13T08:40:50.273Z,1008.65
2018-09-13T08:41:50.331Z,1008.61
2018-09-13T08:42:50.247Z,1008.62
2018-09-13T08:43:50.243Z,1008.65
2018-09-13T08:44:50.235Z,1008.62
2018-09-13T08:45:50.217Z,1008.66
2018-09-13T08:46:50.207Z,1008.67
2018-09-13T08:47:50.227Z,1008.66
2018-09-13T08:48:50.246Z,1008.66
2018-09-13T08:49:50.177Z,1008.60
2018-09-13T08:50:50.164Z,1008.62
2018-09-13T08:51:50.138Z,1008.63
2018-09-13T08:52:50.140Z,1008.58
2018-09-13T08:53:50.128Z,1008.58
2018-09-13T08:54:50.116Z,1008.60
2018-09-13T08:55:50.107Z,1008.56
2018-09-13T08:56:50.098Z,1008.58
2018-09-13T08:57:50.084Z,1008.60
2018-09-13T08:58:50.068Z,1008.59
2018-09-13T08:59:50.080Z,1008.60
2018-09-13T09:00:50.109Z,1008.62
2018-09-13T09:01:50.032Z,1008.64
2018-09-13T09:02:50.016Z,1008.64
2018-09-13T09:03:50.017Z,1008.68
2018-09-13T09:04:50.043Z,1008.66
2018-09-13T09:05:49.987Z,1008.65
2018-09-13T09:06:49.980Z,1008.65
2018-09-13T09:07:49.967Z,1008.67
2018-09-13T09:08:49.956Z,1008.67
2018-09-13T09:09:49.936Z,1008.70
2018-09-13T09:10:50.193Z,1008.73
2018-09-13T09:11:49.959Z,1008.73
2018-09-13T09:12:49.909Z,1008.69
2018-09-13T09:13:49.896Z,1008.71
2018-09-13T09:14:49.889Z,1008.69
2018-09-13T09:15:49.873Z,1008.71
2018-09-13T09:16:49.877Z,1008.66
2018-09-13T09:17:49.855Z,1008.69
2018-09-13T09:18:49.848Z,1008.68
2018-09-13T09:19:49.837Z,1008.63
2018-09-13T09:20:49.829Z,1008.63
2018-09-13T09:21:49.890Z,1008.56
2018-09-13T09:22:49.815Z,1008.59
2018-09-13T09:23:49.791Z,1008.49
2018-09-13T09:24:49.789Z,1008.50
2018-09-13T09:25:49.768Z,1008.49
2018-09-13T09:26:49.764Z,1008.51
2018-09-13T09:27:49.805Z,1008.45
2018-09-13T09:28:49.753Z,1008.49
2018-09-13T09:29:49.735Z,1008.49
2018-09-13T09:30:49.722Z,1008.49
2018-09-13T09:31:49.703Z,1008.48
2018-09-13T09:32:49.711Z,1008.50
2018-09-13T09:33:49.687Z,1008.50
2018-09-13T09:34:49.762Z,1008.50
2018-09-13T09:35:49.666Z,1008.46
2018-09-13T09:36:49.649Z,1008.45
2018-09-13T09:37:49.652Z,1008.43
2018-09-13T09:38:49.669Z,1008.47
2018-09-13T09:39:49.672Z,1008.45
2018-09-13T09:40:49.610Z,1008.43
2018-09-13T09:41:49.592Z,1008.44
2018-09-13T09:42:49.577Z,1008.45
2018-09-13T09:43:49.568Z,1008.46
2018-09-13T09:44:49.610Z,1008.45
2018-09-13T09:45:49.559Z,1008.44
2018-09-13T09:46:49.533Z,1008.47
2018-09-13T09:47:49.530Z,1008.48
2018-09-13T09:48:49.527Z,1008.47
2018-09-13T09:49:49.517Z,1008.46
2018-09-13T09:50:49.540Z,1008.46
2018-09-13T09:51:49.508Z,1008.48
2018-09-13T09:52:49.479Z,1008.48
2018-09-13T09:53:49.479Z,1008.44
2018-09-13T09:54:49.458Z,1008.47
2018-09-13T09:55:49.484Z,1008.48
2018-09-13T09:56:49.434Z,1008.51
2018-09-13T09:57:49.443Z,1008.55
2018-09-13T09:58:49.419Z,1008.60
2018-09-13T09:59:49.407Z,1008.62
2018-09-13T10:00:49.413Z,1008.63
2018-09-13T10:01:49.379Z,1008.62
2018-09-13T10:02:49.366Z,1008.66
2018-09-13T10:03:49.356Z,1008.62
2018-09-13T10:04:49.349Z,1008.60
2018-09-13T10:05:49.350Z,1008.61
2018-09-13T10:06:49.320Z,1008.62
2018-09-13T10:07:49.321Z,1008.65
2018-09-13T10:08:49.340Z,1008.66
2018-09-13T10:09:49.388Z,1008.64
2018-09-13T10:10:49.317Z,1008.66
2018-09-13T10:11:49.274Z,1008.64
2018-09-13T10:12:49.262Z,1008.70
2018-09-13T10:13:49.245Z,1008.66
2018-09-13T10:14:49.246Z,1008.65
2018-09-13T10:15:49.264Z,1008.67
2018-09-13T10:16:49.215Z,1008.66
2018-09-13T10:17:49.210Z,1008.63
2018-09-13T10:18:49.201Z,1008.64
2018-09-13T10:19:49.189Z,1008.63
2018-09-13T10:20:49.205Z,1008.61
2018-09-13T10:21:49.173Z,1008.61
2018-09-13T10:22:49.191Z,1008.64
2018-09-13T10:23:49.142Z,1008.59
2018-09-13T10:24:49.134Z,1008.57
2018-09-13T10:25:49.126Z,1008.59
2018-09-13T10:26:49.150Z,1008.59
2018-09-13T10:27:49.097Z,1008.60
2018-09-13T10:28:49.100Z,1008.57
2018-09-13T10:29:49.179Z,1008.55
2018-09-13T10:30:49.084Z,1008.51
2018-09-13T10:31:49.082Z,1008.48
2018-09-13T10:32:49.050Z,1008.49
2018-09-13T10:33:49.037Z,1008.45
2018-09-13T10:34:49.024Z,1008.48
2018-09-13T10:35:49.023Z,1008.49
2018-09-13T10:36:49.039Z,1008.47
2018-09-13T10:37:48.990Z,1008.47
2018-09-13T10:38:48.990Z,1008.52
2018-09-13T10:39:48.979Z,1008.52
2018-09-13T10:40:48.966Z,1008.51
2018-09-13T10:41:48.977Z,1008.50
2018-09-13T10:42:48.952Z,1008.45
2018-09-13T10:43:48.927Z,1008.53
2018-09-13T10:44:48.916Z,1008.45
2018-09-13T10:45:48.906Z,1008.44
2018-09-13T10:46:48.930Z,1008.42
2018-09-13T10:47:56.487Z,1008.38
2018-09-13T10:48:48.898Z,1008.37
2018-09-13T10:49:48.865Z,1008.36
2018-09-13T10:50:48.865Z,1008.37
2018-09-13T10:51:48.886Z,1008.39
2018-09-13T10:52:48.851Z,1008.32
2018-09-13T10:53:48.866Z,1008.35
2018-09-13T10:54:48.822Z,1008.31
2018-09-13T10:55:48.825Z,1008.31
2018-09-13T10:56:48.805Z,1008.29
2018-09-13T10:57:48.801Z,1008.29
2018-09-13T10:58:48.842Z,1008.30
2018-09-13T10:59:48.774Z,1008.29
2018-09-13T11:00:48.764Z,1008.27
2018-09-13T11:01:48.748Z,1008.31
2018-09-13T11:02:48.750Z,1008.31
2018-09-13T11:03:48.726Z,1008.30
2018-09-13T11:04:48.777Z,1008.33
2018-09-13T11:05:48.705Z,1008.33
2018-09-13T11:06:48.689Z,1008.34
2018-09-13T11:07:48.687Z,1008.31
2018-09-13T11:08:48.680Z,1008.33
2018-09-13T11:09:48.674Z,1008.28
2018-09-13T11:10:48.866Z,1008.31
2018-09-13T11:11:48.644Z,1008.32
2018-09-13T11:12:48.641Z,1008.29
2018-09-13T11:13:48.624Z,1008.33
2018-09-13T11:14:48.618Z,1008.32
2018-09-13T11:15:48.601Z,1008.34
2018-09-13T11:16:48.600Z,1008.34
2018-09-13T11:17:48.590Z,1008.34
2018-09-13T11:18:48.578Z,1008.34
2018-09-13T11:19:48.563Z,1008.33
2018-09-13T11:20:48.548Z,1008.34
2018-09-13T11:21:48.675Z,1008.31
2018-09-13T11:22:48.531Z,1008.33
2018-09-13T11:23:48.524Z,1008.33
2018-09-13T11:24:48.518Z,1008.33
2018-09-13T11:25:48.502Z,1008.35
2018-09-13T11:26:48.543Z,1008.32
2018-09-13T11:27:48.488Z,1008.34
2018-09-13T11:28:48.471Z,1008.36
2018-09-13T11:29:48.467Z,1008.34
2018-09-13T11:30:48.452Z,1008.31
2018-09-13T11:31:48.441Z,1008.36
2018-09-13T11:32:48.454Z,1008.35
2018-09-13T11:33:48.702Z,1008.31
2018-09-13T11:34:48.417Z,1008.39
2018-09-13T11:35:48.404Z,1008.36
2018-09-13T11:36:48.394Z,1008.36
2018-09-13T11:37:48.387Z,1008.36
2018-09-13T11:38:48.372Z,1008.37
2018-09-13T11:39:48.457Z,1008.36
2018-09-13T11:40:48.654Z,1008.34
2018-09-13T11:41:48.341Z,1008.35
2018-09-13T11:42:48.339Z,1008.34
2018-09-13T11:43:48.333Z,1008.34
2018-09-13T11:44:48.381Z,1008.36
2018-09-13T11:45:48.306Z,1008.40
2018-09-13T11:46:48.296Z,1008.40
2018-09-13T11:47:48.283Z,1008.35
2018-09-13T11:48:48.270Z,1008.39
2018-09-13T11:49:48.264Z,1008.35
2018-09-13T11:50:48.260Z,1008.35
2018-09-13T11:51:48.245Z,1008.39
2018-09-13T11:52:48.231Z,1008.36
2018-09-13T11:53:48.227Z,1008.37
2018-09-13T11:54:48.211Z,1008.34
2018-09-13T11:55:48.211Z,1008.37
2018-09-13T11:56:48.194Z,1008.36
2018-09-13T11:57:48.192Z,1008.36
2018-09-13T11:58:48.178Z,1008.38
2018-09-13T11:59:48.175Z,1008.31
2018-09-13T12:00:48.187Z,1008.27
2018-09-13T12:01:48.191Z,1008.27
2018-09-13T12:02:48.137Z,1008.30
2018-09-13T12:03:48.131Z,1008.27
2018-09-13T12:04:48.111Z,1008.27
2018-09-13T12:05:48.145Z,1008.28